ヌーク の空港の天気 - METARとTAF

ヌーク空港 ( BGGH / GOH ) - グリーンランド ヌーク
飛行場実況気象(Metar)
観測時間04/25 05:50 WGST (04/25 07:50 UTC)
風向・風速北 7m/s
視程10km以上
天気現象
少しの雲 雲底高度 550m
気温-10℃
湿度73%
気圧1011hPa
METARBGGH 250750Z 35013KT 9999 FEW018 M10/M14 Q1011
過去の天気等 Google飛行場航空写真 Wunderground天気予報

過去48時間のMETAR

飛行場予報(TAF)
発表時間: 4/24 18:03 WGST (4/24 20:03 UTC)
予報対象時間: 24日19時 WGST ~ 24日23時 WGST
風向・風速北西 9m/s
視程10km以上
天気現象低い地吹雪
全天の4割程度の塔状積雲 雲底高度 670m
全天の8割程度の雲 雲底高度 1520m
24日19時 WGST ~ 24日23時 WGST に一時的に
視程3000m
天気現象弱いしゅう雪
全天の8割程度の雲 雲底高度 370m
TAF BGGH 242003Z 2421/2501 32018KT 9999 DRSN SCT022TCU BKN050
TEMPO 2421/2501 3000 -SHSN BKN012